createdAt,value
2023-05-23T00:00:09.167Z,18.90
2023-05-23T00:02:37.892Z,19.00
2023-05-23T00:05:07.334Z,18.90
2023-05-23T00:07:35.313Z,19.00
2023-05-23T00:10:03.193Z,19.00
2023-05-23T00:12:33.509Z,18.90
2023-05-23T00:15:01.386Z,18.90
2023-05-23T00:17:29.299Z,18.90
2023-05-23T00:19:57.183Z,18.90
2023-05-23T00:22:25.057Z,18.90
2023-05-23T00:24:53.506Z,18.80
2023-05-23T00:27:21.680Z,18.80
2023-05-23T00:29:50.925Z,18.80
2023-05-23T00:32:18.819Z,18.80
2023-05-23T00:34:46.761Z,18.80
2023-05-23T00:37:15.170Z,18.80
2023-05-23T00:39:43.028Z,18.70
2023-05-23T00:42:10.883Z,18.70
2023-05-23T00:44:38.794Z,18.70
2023-05-23T00:47:09.243Z,18.70
2023-05-23T00:49:37.140Z,18.70
2023-05-23T00:52:05.686Z,18.80
2023-05-23T00:54:34.468Z,18.70
2023-05-23T00:57:02.487Z,18.60
2023-05-23T00:59:31.209Z,18.60
2023-05-23T01:02:00.393Z,18.60
2023-05-23T01:04:34.107Z,18.50
2023-05-23T01:07:02.287Z,18.50
2023-05-23T01:09:30.961Z,18.50
2023-05-23T01:12:12.304Z,18.40
2023-05-23T01:14:47.440Z,18.40
2023-05-23T01:17:21.673Z,18.40
2023-05-23T01:20:09.943Z,18.40
2023-05-23T01:22:56.252Z,18.40
2023-05-23T01:25:36.167Z,18.40
2023-05-23T01:28:08.850Z,18.30
2023-05-23T01:30:40.710Z,18.30
2023-05-23T01:33:11.379Z,18.30
2023-05-23T01:35:39.858Z,18.30
2023-05-23T01:38:07.903Z,18.30
2023-05-23T01:40:35.918Z,18.20
2023-05-23T01:43:26.584Z,18.20
2023-05-23T01:45:57.216Z,18.10
2023-05-23T01:48:27.533Z,18.00
2023-05-23T01:50:56.596Z,18.00
2023-05-23T01:53:25.437Z,18.10
2023-05-23T01:55:53.920Z,18.00
2023-05-23T01:58:22.088Z,17.90
2023-05-23T02:00:51.534Z,17.80
2023-05-23T02:03:19.669Z,17.70
2023-05-23T02:05:47.611Z,17.70
2023-05-23T02:08:15.522Z,17.60
2023-05-23T02:10:43.373Z,17.60
2023-05-23T02:13:11.308Z,17.50
2023-05-23T02:15:39.364Z,17.50
2023-05-23T02:18:08.781Z,17.40
2023-05-23T02:20:36.637Z,17.40
2023-05-23T02:23:04.521Z,17.40
2023-05-23T02:25:32.384Z,17.30
2023-05-23T02:28:00.311Z,17.30
2023-05-23T02:30:28.235Z,17.30
2023-05-23T02:32:57.583Z,17.30
2023-05-23T02:35:26.801Z,17.20
2023-05-23T02:37:54.717Z,17.20
2023-05-23T02:40:22.683Z,17.20
2023-05-23T02:42:51.120Z,17.10
2023-05-23T02:45:19.022Z,17.00
2023-05-23T02:47:46.980Z,17.00
2023-05-23T02:50:14.879Z,17.00
2023-05-23T02:52:44.178Z,17.00
2023-05-23T02:55:12.108Z,17.00
2023-05-23T02:57:39.984Z,17.00
2023-05-23T03:00:10.296Z,17.10
2023-05-23T03:02:38.294Z,17.20
2023-05-23T03:05:07.309Z,17.10
2023-05-23T03:07:35.289Z,17.00
2023-05-23T03:10:04.895Z,17.00
2023-05-23T03:12:32.861Z,17.00
2023-05-23T03:15:00.853Z,16.90
2023-05-23T03:17:29.001Z,16.90
2023-05-23T03:19:57.029Z,16.70
2023-05-23T03:22:25.087Z,16.60
2023-05-23T03:24:53.295Z,16.60
2023-05-23T03:27:22.623Z,16.60
2023-05-23T03:29:50.592Z,16.50
2023-05-23T03:32:18.676Z,16.40
2023-05-23T03:34:46.708Z,16.40
2023-05-23T03:37:14.708Z,16.30
2023-05-23T03:39:42.689Z,16.30
2023-05-23T03:42:10.780Z,16.20
2023-05-23T03:44:40.150Z,16.20
2023-05-23T03:47:12.582Z,16.10
2023-05-23T03:49:40.658Z,16.20
2023-05-23T03:52:08.851Z,16.30
2023-05-23T03:54:36.848Z,16.30
2023-05-23T03:57:05.317Z,16.20
2023-05-23T03:59:33.300Z,16.30
2023-05-23T04:02:02.631Z,16.40
2023-05-23T04:04:31.330Z,16.30
2023-05-23T04:07:00.110Z,16.40
2023-05-23T04:09:28.110Z,16.30
2023-05-23T04:11:56.105Z,16.30
2023-05-23T04:14:25.345Z,16.30
2023-05-23T04:16:53.612Z,16.30
2023-05-23T04:19:23.010Z,16.20
2023-05-23T04:21:50.934Z,16.20
2023-05-23T04:24:18.839Z,16.30
2023-05-23T04:26:46.733Z,16.30
2023-05-23T04:29:14.586Z,16.40
2023-05-23T04:31:45.788Z,16.50
2023-05-23T04:34:14.322Z,16.60
2023-05-23T04:36:44.647Z,16.60
2023-05-23T04:39:12.637Z,16.60
2023-05-23T04:41:40.829Z,16.50
2023-05-23T04:44:10.080Z,16.50
2023-05-23T04:46:42.150Z,16.50
2023-05-23T04:49:10.380Z,16.40
2023-05-23T04:51:38.349Z,16.40
2023-05-23T04:54:07.738Z,16.40
2023-05-23T04:56:36.061Z,16.40
2023-05-23T04:59:04.054Z,16.40
2023-05-23T05:01:32.106Z,16.40
2023-05-23T05:04:00.365Z,16.30
2023-05-23T05:06:28.871Z,16.20
2023-05-23T05:08:56.781Z,16.20
2023-05-23T05:11:27.263Z,16.20
2023-05-23T05:13:55.169Z,16.20
2023-05-23T05:16:23.079Z,16.20
2023-05-23T05:18:51.405Z,16.20
2023-05-23T05:21:19.346Z,16.30
2023-05-23T05:23:47.235Z,16.40
2023-05-23T05:26:15.186Z,16.40
2023-05-23T05:28:44.352Z,16.40
2023-05-23T05:31:15.407Z,16.60
2023-05-23T05:33:45.899Z,16.50
2023-05-23T05:36:13.992Z,16.50
2023-05-23T05:38:41.893Z,16.50
2023-05-23T05:41:09.752Z,16.60
2023-05-23T05:43:37.667Z,16.60
2023-05-23T05:46:07.160Z,16.70
2023-05-23T05:48:35.112Z,16.80
2023-05-23T05:51:03.281Z,16.80
2023-05-23T05:53:31.190Z,16.90
2023-05-23T05:55:59.060Z,17.10
2023-05-23T05:58:26.913Z,17.00
2023-05-23T06:00:56.326Z,17.10
2023-05-23T06:03:26.171Z,17.20
2023-05-23T06:05:54.153Z,17.30
2023-05-23T06:08:22.087Z,17.40
2023-05-23T06:10:49.994Z,17.50
2023-05-23T06:13:17.904Z,17.30
2023-05-23T06:15:45.970Z,17.20
2023-05-23T06:18:13.861Z,17.10
2023-05-23T06:20:43.343Z,17.00
2023-05-23T06:23:11.294Z,17.00
2023-05-23T06:25:39.607Z,16.90
2023-05-23T06:28:07.480Z,16.80
2023-05-23T06:30:37.504Z,16.80
2023-05-23T06:33:05.675Z,16.70
2023-05-23T06:35:33.622Z,16.70
2023-05-23T06:38:03.199Z,16.70
2023-05-23T06:40:31.119Z,16.80
2023-05-23T06:42:58.959Z,16.90
2023-05-23T06:45:26.841Z,17.00
2023-05-23T06:47:54.767Z,17.10
2023-05-23T06:50:22.755Z,17.10
2023-05-23T06:52:50.913Z,17.10
2023-05-23T06:55:20.385Z,17.20
2023-05-23T06:57:51.838Z,17.10
2023-05-23T07:00:20.264Z,17.00
2023-05-23T07:02:48.978Z,16.90
2023-05-23T07:05:17.478Z,16.90
2023-05-23T07:07:45.619Z,16.90
2023-05-23T07:10:13.506Z,16.80
2023-05-23T07:12:42.955Z,16.60
2023-05-23T07:15:12.295Z,16.60
2023-05-23T07:17:40.265Z,16.70
2023-05-23T07:20:09.440Z,16.90
2023-05-23T07:22:37.309Z,17.20
2023-05-23T07:25:05.870Z,17.40
2023-05-23T07:27:33.779Z,17.70
2023-05-23T07:30:03.046Z,17.90
2023-05-23T07:32:30.969Z,18.10
2023-05-23T07:34:58.942Z,18.20
2023-05-23T07:37:27.405Z,18.20
2023-05-23T07:39:55.531Z,18.00
2023-05-23T07:42:23.425Z,17.70
2023-05-23T07:44:51.295Z,17.60
2023-05-23T07:47:20.626Z,17.50
2023-05-23T07:49:48.562Z,17.50
2023-05-23T07:52:16.499Z,17.40
2023-05-23T07:54:44.486Z,17.50
2023-05-23T07:57:12.526Z,17.50
2023-05-23T07:59:40.379Z,17.40
2023-05-23T08:02:08.408Z,17.50
2023-05-23T08:04:37.789Z,17.60
2023-05-23T08:07:06.283Z,17.80
2023-05-23T08:09:34.255Z,18.10
2023-05-23T08:12:02.162Z,18.30
2023-05-23T08:14:38.781Z,18.50
2023-05-23T08:17:18.117Z,18.50
2023-05-23T08:19:47.539Z,18.60
2023-05-23T08:22:15.415Z,18.50
2023-05-23T08:24:43.302Z,18.50
2023-05-23T08:27:11.233Z,18.50
2023-05-23T08:29:39.160Z,18.40
2023-05-23T08:32:07.280Z,18.20
2023-05-23T08:34:35.219Z,18.20
2023-05-23T08:37:04.613Z,18.20
2023-05-23T08:39:32.511Z,18.30
2023-05-23T08:42:00.842Z,18.40
2023-05-23T08:44:28.787Z,18.40
2023-05-23T08:46:58.401Z,18.50
2023-05-23T08:49:27.040Z,18.50
2023-05-23T08:51:59.027Z,18.60
2023-05-23T08:54:29.474Z,18.70
2023-05-23T08:56:57.383Z,18.80
2023-05-23T08:59:27.056Z,19.00
2023-05-23T09:01:57.304Z,18.80
2023-05-23T09:04:25.279Z,18.70
2023-05-23T09:06:53.221Z,18.60
2023-05-23T09:09:21.189Z,18.50
2023-05-23T09:11:51.412Z,18.50
2023-05-23T09:14:19.463Z,18.50
2023-05-23T09:16:49.093Z,18.50
2023-05-23T09:19:17.197Z,18.50
2023-05-23T09:21:45.455Z,18.50
2023-05-23T09:24:13.660Z,18.40
2023-05-23T09:26:41.533Z,18.30
2023-05-23T09:29:10.795Z,18.40
2023-05-23T09:31:38.735Z,18.40
2023-05-23T09:34:06.937Z,18.40
2023-05-23T09:36:35.409Z,18.40
2023-05-23T09:39:05.745Z,18.60
2023-05-23T09:41:35.224Z,19.00
2023-05-23T09:44:07.293Z,19.40
2023-05-23T09:46:38.443Z,19.90
2023-05-23T09:49:18.158Z,20.50
2023-05-23T09:51:57.647Z,20.60
2023-05-23T09:54:25.732Z,20.50
2023-05-23T09:56:56.173Z,20.40
2023-05-23T09:59:25.162Z,20.40
2023-05-23T10:01:57.662Z,20.30
2023-05-23T10:04:26.748Z,20.00
2023-05-23T10:07:00.085Z,19.90
2023-05-23T10:09:32.218Z,19.70
2023-05-23T10:12:32.700Z,19.50
2023-05-23T10:15:04.609Z,19.60
2023-05-23T10:17:41.662Z,19.50
2023-05-23T10:20:12.660Z,19.50
2023-05-23T10:22:41.153Z,19.30
2023-05-23T10:25:10.294Z,19.30
2023-05-23T10:27:39.138Z,19.10
2023-05-23T10:30:08.938Z,19.00
2023-05-23T10:32:40.586Z,19.00
2023-05-23T10:35:16.390Z,18.90
2023-05-23T10:37:51.057Z,18.80
2023-05-23T10:40:41.229Z,18.70
2023-05-23T10:43:17.262Z,18.70
2023-05-23T10:45:45.469Z,18.70
2023-05-23T10:48:23.660Z,18.70
2023-05-23T10:51:05.792Z,18.60
2023-05-23T10:53:36.186Z,18.70
2023-05-23T10:56:07.184Z,18.60
2023-05-23T10:58:35.794Z,18.60
2023-05-23T11:01:07.634Z,18.50
2023-05-23T11:03:54.586Z,18.40
2023-05-23T11:06:35.156Z,18.40
2023-05-23T11:09:07.347Z,18.40
2023-05-23T11:11:57.882Z,18.40
2023-05-23T11:14:54.865Z,18.50
2023-05-23T11:17:34.060Z,18.50
2023-05-23T11:20:06.683Z,18.60
2023-05-23T11:22:35.050Z,18.70
2023-05-23T11:25:08.100Z,18.90
2023-05-23T11:27:37.901Z,18.90
2023-05-23T11:30:08.926Z,18.90
2023-05-23T11:32:38.090Z,18.70
2023-05-23T11:35:09.430Z,18.60
2023-05-23T11:37:39.727Z,18.50
2023-05-23T11:40:27.895Z,18.40
2023-05-23T11:42:56.398Z,18.30
2023-05-23T11:45:24.876Z,18.30
2023-05-23T11:47:52.939Z,18.40
2023-05-23T11:50:22.243Z,18.50
2023-05-23T11:52:52.336Z,18.70
2023-05-23T11:55:21.118Z,18.80
2023-05-23T11:57:49.657Z,19.00
2023-05-23T12:00:18.837Z,19.50
2023-05-23T12:02:47.699Z,20.00
2023-05-23T12:05:16.084Z,20.30
2023-05-23T12:07:46.948Z,20.80
2023-05-23T12:10:16.313Z,21.30
2023-05-23T12:12:45.195Z,21.40
2023-05-23T12:15:14.233Z,21.80
2023-05-23T12:17:46.363Z,22.00
2023-05-23T12:20:14.651Z,22.10
2023-05-23T12:22:43.229Z,22.60
2023-05-23T12:25:12.953Z,22.50
2023-05-23T12:27:44.005Z,22.50
2023-05-23T12:30:14.408Z,22.40
2023-05-23T12:32:43.106Z,22.30
2023-05-23T12:35:13.193Z,22.00
2023-05-23T12:37:43.079Z,21.70
2023-05-23T12:40:14.200Z,21.80
2023-05-23T12:42:51.603Z,21.60
2023-05-23T12:45:19.701Z,21.50
2023-05-23T12:47:47.637Z,21.20
2023-05-23T12:50:15.590Z,20.70
2023-05-23T12:52:43.659Z,20.50
2023-05-23T12:55:14.467Z,20.40
2023-05-23T12:57:42.446Z,20.70
2023-05-23T13:00:11.718Z,20.70
2023-05-23T13:02:39.897Z,20.70
2023-05-23T13:05:08.683Z,20.60
2023-05-23T13:07:37.954Z,20.50
2023-05-23T13:10:06.632Z,20.30
2023-05-23T13:12:35.900Z,19.90
2023-05-23T13:15:03.842Z,20.00
2023-05-23T13:17:31.727Z,19.90
2023-05-23T13:19:59.678Z,19.70
2023-05-23T13:22:27.521Z,19.70
2023-05-23T13:24:55.391Z,19.70
2023-05-23T13:27:23.329Z,19.60
2023-05-23T13:29:52.561Z,19.50
2023-05-23T13:32:20.527Z,19.60
2023-05-23T13:34:48.416Z,19.90
2023-05-23T13:37:16.280Z,19.90
2023-05-23T13:39:44.286Z,20.00
2023-05-23T13:42:12.514Z,20.10
2023-05-23T13:44:40.457Z,20.30
2023-05-23T13:47:13.665Z,20.20
2023-05-23T13:49:41.770Z,20.50
2023-05-23T13:52:09.709Z,20.90
2023-05-23T13:54:37.626Z,21.30
2023-05-23T13:57:06.747Z,21.90
2023-05-23T13:59:34.647Z,22.40
2023-05-23T14:02:02.754Z,22.80
2023-05-23T14:04:33.613Z,23.10
2023-05-23T14:07:01.466Z,22.90
2023-05-23T14:09:29.342Z,22.90
2023-05-23T14:11:57.202Z,22.60
2023-05-23T14:14:26.962Z,22.50
2023-05-23T14:16:54.963Z,22.20
2023-05-23T14:19:22.993Z,22.10
2023-05-23T14:21:52.248Z,22.10
2023-05-23T14:24:20.156Z,22.60
2023-05-23T14:26:48.006Z,22.50
2023-05-23T14:29:16.004Z,22.40
2023-05-23T14:31:43.936Z,22.30
2023-05-23T14:34:12.381Z,22.30
2023-05-23T14:36:40.244Z,22.40
2023-05-23T14:39:10.845Z,22.50
2023-05-23T14:41:38.849Z,22.50
2023-05-23T14:44:06.820Z,21.90
2023-05-23T14:46:34.856Z,21.50
2023-05-23T14:49:02.753Z,21.00
2023-05-23T14:51:43.998Z,20.70
2023-05-23T14:54:15.913Z,20.70
2023-05-23T14:56:43.897Z,20.40
2023-05-23T14:59:11.992Z,20.50
2023-05-23T15:01:40.697Z,20.70
2023-05-23T15:04:09.853Z,20.50
2023-05-23T15:06:38.335Z,20.60
2023-05-23T15:09:06.328Z,20.60
2023-05-23T15:11:37.851Z,20.70
2023-05-23T15:14:05.938Z,20.70
2023-05-23T15:16:35.118Z,21.10
2023-05-23T15:19:03.169Z,20.70
2023-05-23T15:21:32.190Z,20.30
2023-05-23T15:24:00.423Z,19.90
2023-05-23T15:26:28.321Z,19.70
2023-05-23T15:28:57.504Z,19.60
2023-05-23T15:31:25.572Z,19.50
2023-05-23T15:33:53.460Z,19.40
2023-05-23T15:36:21.369Z,19.40
2023-05-23T15:38:49.463Z,19.20
2023-05-23T15:41:17.821Z,19.10
2023-05-23T15:43:45.729Z,19.00
2023-05-23T15:46:15.105Z,19.10
2023-05-23T15:48:42.985Z,19.10
2023-05-23T15:51:10.874Z,19.20
2023-05-23T15:53:58.822Z,19.30
2023-05-23T15:56:27.018Z,19.10
2023-05-23T15:58:54.981Z,19.00
2023-05-23T16:01:24.388Z,18.90
2023-05-23T16:03:52.333Z,18.90
2023-05-23T16:06:20.582Z,18.90
2023-05-23T16:08:48.426Z,18.90
2023-05-23T16:11:16.302Z,18.90
2023-05-23T16:13:44.204Z,18.80
2023-05-23T16:16:12.100Z,19.00
2023-05-23T16:18:41.508Z,19.00
2023-05-23T16:21:09.394Z,18.90
2023-05-23T16:23:37.276Z,18.70
2023-05-23T16:26:05.409Z,18.70
2023-05-23T16:28:33.312Z,18.70
2023-05-23T16:31:01.213Z,18.70
2023-05-23T16:33:29.077Z,18.50
2023-05-23T16:35:58.331Z,18.30
2023-05-23T16:38:26.204Z,18.20
2023-05-23T16:40:54.083Z,18.00
2023-05-23T16:43:21.974Z,17.90
2023-05-23T16:45:49.874Z,18.00
2023-05-23T16:48:19.311Z,17.90
2023-05-23T16:50:47.229Z,17.90
2023-05-23T16:53:16.454Z,17.90
2023-05-23T16:55:44.481Z,17.80
2023-05-23T16:58:13.139Z,17.80
2023-05-23T17:00:41.198Z,17.70
2023-05-23T17:03:10.279Z,17.70
2023-05-23T17:05:39.104Z,17.70
2023-05-23T17:08:07.179Z,17.70
2023-05-23T17:10:37.279Z,17.60
2023-05-23T17:13:05.173Z,17.70
2023-05-23T17:15:33.089Z,17.60
2023-05-23T17:18:01.014Z,17.40
2023-05-23T17:20:29.165Z,17.40
2023-05-23T17:22:57.032Z,17.20
2023-05-23T17:25:24.961Z,17.00
2023-05-23T17:27:55.034Z,16.90
2023-05-23T17:30:22.878Z,16.80
2023-05-23T17:32:51.022Z,16.60
2023-05-23T17:35:19.053Z,16.60
2023-05-23T17:37:47.209Z,16.50
2023-05-23T17:40:16.497Z,16.50
2023-05-23T17:42:44.922Z,16.60
2023-05-23T17:45:14.559Z,16.60
2023-05-23T17:47:42.604Z,16.40
2023-05-23T17:50:12.006Z,16.30
2023-05-23T17:52:40.000Z,16.30
2023-05-23T17:55:08.518Z,16.30
2023-05-23T17:57:36.455Z,16.30
2023-05-23T18:00:04.795Z,16.30
2023-05-23T18:02:34.024Z,16.20
2023-05-23T18:05:02.041Z,16.10
2023-05-23T18:07:29.989Z,16.00
2023-05-23T18:09:59.630Z,15.90
2023-05-23T18:12:27.693Z,15.80
2023-05-23T18:14:55.775Z,15.80
2023-05-23T18:17:24.782Z,15.70
2023-05-23T18:19:54.052Z,15.60
2023-05-23T18:22:21.960Z,15.60
2023-05-23T18:24:49.837Z,15.40
2023-05-23T18:27:17.904Z,15.50
2023-05-23T18:29:45.839Z,15.30
2023-05-23T18:32:14.488Z,15.30
2023-05-23T18:34:42.724Z,15.30
2023-05-23T18:37:11.961Z,15.30
2023-05-23T18:39:39.910Z,15.30
2023-05-23T18:42:08.023Z,15.30
2023-05-23T18:44:35.870Z,15.30
2023-05-23T18:47:03.790Z,15.20
2023-05-23T18:49:32.360Z,15.20
2023-05-23T18:52:00.287Z,15.20
2023-05-23T18:54:29.484Z,15.20
2023-05-23T18:56:57.571Z,15.30
2023-05-23T18:59:25.529Z,15.30
2023-05-23T19:01:53.439Z,15.20
2023-05-23T19:04:21.540Z,15.20
2023-05-23T19:06:49.496Z,15.20
2023-05-23T19:09:17.354Z,15.20
2023-05-23T19:11:46.570Z,15.00
2023-05-23T19:14:14.645Z,14.90
2023-05-23T19:16:42.721Z,14.90
2023-05-23T19:19:11.319Z,14.90
2023-05-23T19:21:39.249Z,14.90
2023-05-23T19:24:08.427Z,14.80
2023-05-23T19:26:37.157Z,14.80
2023-05-23T19:29:06.540Z,14.80
2023-05-23T19:31:34.594Z,14.80
2023-05-23T19:34:02.757Z,14.80
2023-05-23T19:36:30.637Z,14.80
2023-05-23T19:38:58.489Z,14.90
2023-05-23T19:41:26.616Z,14.90
2023-05-23T19:43:54.495Z,14.90
2023-05-23T19:46:23.797Z,14.90
2023-05-23T19:48:51.699Z,14.90
2023-05-23T19:51:19.610Z,14.90
2023-05-23T19:53:47.619Z,14.90
2023-05-23T19:56:16.153Z,14.90
2023-05-23T19:58:44.208Z,14.80
2023-05-23T20:01:12.259Z,14.80
2023-05-23T20:03:41.495Z,14.70
2023-05-23T20:06:09.629Z,14.80
2023-05-23T20:08:37.501Z,14.80
2023-05-23T20:11:05.825Z,14.90
2023-05-23T20:13:33.723Z,14.90
2023-05-23T20:16:01.804Z,14.90
2023-05-23T20:18:29.757Z,15.00
2023-05-23T20:20:58.944Z,15.10
2023-05-23T20:23:28.455Z,15.20
2023-05-23T20:25:56.703Z,15.20
2023-05-23T20:28:24.555Z,15.20
2023-05-23T20:30:52.525Z,15.20
2023-05-23T20:33:21.735Z,15.30
2023-05-23T20:35:49.861Z,15.30
2023-05-23T20:38:20.213Z,15.30
2023-05-23T20:40:50.873Z,15.30
2023-05-23T20:43:22.203Z,15.30
2023-05-23T20:45:50.446Z,15.20
2023-05-23T20:48:18.348Z,15.20
2023-05-23T20:50:46.241Z,15.10
2023-05-23T20:53:14.188Z,15.10
2023-05-23T20:55:43.561Z,15.10
2023-05-23T20:58:11.595Z,15.20
2023-05-23T21:00:39.798Z,15.00
2023-05-23T21:03:07.922Z,15.00
2023-05-23T21:05:35.912Z,14.90
2023-05-23T21:08:04.412Z,15.00
2023-05-23T21:10:32.673Z,14.90
2023-05-23T21:13:02.048Z,14.90
2023-05-23T21:15:30.057Z,14.80
2023-05-23T21:17:57.974Z,14.80
2023-05-23T21:20:26.407Z,14.80
2023-05-23T21:22:54.274Z,14.70
2023-05-23T21:25:22.106Z,14.70
2023-05-23T21:27:50.916Z,14.70
2023-05-23T21:30:20.157Z,14.70
2023-05-23T21:32:48.088Z,14.60
2023-05-23T21:35:15.974Z,14.70
2023-05-23T21:37:43.869Z,14.70
2023-05-23T21:40:12.130Z,14.50
2023-05-23T21:42:40.003Z,14.40
2023-05-23T21:45:09.090Z,14.30
2023-05-23T21:47:38.576Z,14.20
2023-05-23T21:50:08.093Z,14.20
2023-05-23T21:52:36.057Z,14.10
2023-05-23T21:55:04.023Z,13.90
2023-05-23T21:57:31.907Z,14.00
2023-05-23T21:59:59.762Z,14.00
2023-05-23T22:02:27.746Z,13.90
2023-05-23T22:04:57.036Z,14.00
2023-05-23T22:07:25.983Z,14.00
2023-05-23T22:09:54.545Z,14.00
2023-05-23T22:12:22.671Z,14.10
2023-05-23T22:14:50.613Z,14.10
2023-05-23T22:17:22.583Z,14.10
2023-05-23T22:19:51.976Z,14.10
2023-05-23T22:22:21.237Z,14.10
2023-05-23T22:24:49.161Z,14.20
2023-05-23T22:27:17.037Z,14.20
2023-05-23T22:29:45.003Z,14.30
2023-05-23T22:32:12.898Z,14.30
2023-05-23T22:34:40.854Z,14.20
2023-05-23T22:37:09.564Z,14.20
2023-05-23T22:39:38.777Z,14.20
2023-05-23T22:42:07.119Z,14.10
2023-05-23T22:44:34.994Z,14.20
2023-05-23T22:47:03.685Z,14.10
2023-05-23T22:49:32.015Z,14.10
2023-05-23T22:51:59.900Z,14.10
2023-05-23T22:54:27.773Z,14.10
2023-05-23T22:56:57.023Z,14.10
2023-05-23T22:59:24.864Z,14.10
2023-05-23T23:01:52.716Z,14.00
2023-05-23T23:04:23.544Z,13.90
2023-05-23T23:06:53.600Z,13.80
2023-05-23T23:09:21.621Z,13.70
2023-05-23T23:11:49.648Z,13.60
2023-05-23T23:14:18.870Z,13.60
2023-05-23T23:16:49.757Z,13.60
2023-05-23T23:19:17.793Z,13.60
2023-05-23T23:21:45.894Z,13.50
2023-05-23T23:24:14.076Z,13.40
2023-05-23T23:26:41.938Z,13.30
2023-05-23T23:29:09.797Z,13.30
2023-05-23T23:31:39.134Z,13.30
2023-05-23T23:34:06.983Z,13.30
2023-05-23T23:36:34.882Z,13.20
2023-05-23T23:39:02.770Z,13.10
2023-05-23T23:41:30.676Z,13.00
2023-05-23T23:43:58.528Z,12.90
2023-05-23T23:46:26.905Z,12.90
2023-05-23T23:48:56.195Z,12.80
2023-05-23T23:51:24.089Z,12.70
2023-05-23T23:53:53.465Z,12.70
2023-05-23T23:56:22.693Z,12.70
2023-05-23T23:58:50.577Z,12.70
